Darstellungsparameter: Aktuell verwendete Einstellungen:
Skalierung der Graphiken ... ?
xyx+y,   Skalierungsfaktor:      Skalierung: Modus: x, Faktor: 1
Darstellungszeitraum ... ?
Vom - - bis: - -   Zeitraum: 06.08.2019 - 05.09.2019
Min/Max/Avg-Anzeige ... ?
Zeige MMA aktuell
Zeige MMA Monat
Zeige MMA alles
Zeige --A aktuell
Zeige --A Monat
Zeige --A alles
Keine MMA-Anzeige
MMA:
Keine MMA-Graphiken
MMA-Basis: 06.08.2019 - 05.09.2019
Quicknavigation für Darstellung... ?
Tage:      1T, 2T, 3T, 5T -1T -2T -3T -5T +1T +2T +3T +5T
Wochen: 1W, 2W, 3W -1W -2W -3W +1W +2W +3W
Monate: 1M, 3M, 6M -1M -3M -6M +1M +3M +6M
Jahre:    1J, 3J, 5J, 10J -1J -3J -5J -10J +1J +3J +5J +10J
Nutze für die Darstellung ... ?
Originaldaten oder ...
Mittelwerte Minima Maxima auf...
Stundenbasis Tagesbasis Wochenbasis
Monatsbasis Jahresbasis      Datenbasis: Mittelwerte auf Stundenbasis
Darstellen als:
Statistik (Auto) Statistik J:M      Darstellung:
Zur Graphik,    zurück zur Übersicht aller Sensoren.
 
Tabellarische Datenbersicht: ?
 
Sensor: Nr:Datum:Temp:Feuchte:Taupunkt:
Aussen-T/F 1 06-08-2019 00:00:00 18.00833 C 78.2500 % 14.17 C
2 06-08-2019 01:00:00 17.10833 C 81.4167 % 13.9 C
3 06-08-2019 02:00:00 17.00833 C 82.9167 % 14.09 C
4 06-08-2019 03:00:00 17.45833 C 83.0833 % 14.56 C
5 06-08-2019 04:00:00 17.20833 C 83.8333 % 14.45 C
6 06-08-2019 05:00:00 16.60833 C 85.6667 % 14.2 C
7 06-08-2019 06:00:00 16.66667 C 86.5833 % 14.42 C
8 06-08-2019 07:00:00 17.83333 C 83.2500 % 14.95 C
9 06-08-2019 08:00:00 18.675 C 81.0833 % 15.37 C
10 06-08-2019 09:00:00 20.1 C 76.5000 % 15.84 C
11 06-08-2019 10:00:00 19.91667 C 83.7500 % 17.09 C
12 06-08-2019 11:00:00 19.65 C 89.1667 % 17.82 C
13 06-08-2019 12:00:00 21.31667 C 82.2500 % 18.17 C
14 06-08-2019 13:00:00 22.325 C 77.4167 % 18.18 C
15 06-08-2019 14:00:00 23.61667 C 69.8333 % 17.79 C
16 06-08-2019 15:00:00 24.725 C 64.7500 % 17.64 C
17 06-08-2019 16:00:00 25.39167 C 61.9167 % 17.56 C
18 06-08-2019 17:00:00 26.4 C 57.5000 % 17.33 C
19 06-08-2019 18:00:00 25.20833 C 61.8333 % 17.37 C
20 06-08-2019 19:00:00 22.54167 C 76.7500 % 18.25 C
21 06-08-2019 20:00:00 19.05 C 90.4167 % 17.44 C
22 06-08-2019 21:00:00 18.00833 C 93.1667 % 16.89 C
23 06-08-2019 22:00:00 17.51667 C 94.0000 % 16.54 C
24 06-08-2019 23:00:00 17.08333 C 94.9167 % 16.26 C
25 07-08-2019 00:00:00 16.68333 C 95.0000 % 15.88 C
Sensor: Nr:Datum:Temp:Feuchte:Taupunkt:
Aussen-T/F 26 07-08-2019 01:00:00 16.3 C 95.5000 % 15.58 C
27 07-08-2019 02:00:00 16.45833 C 96.0000 % 15.82 C
28 07-08-2019 03:00:00 16.58333 C 96.2500 % 15.98 C
29 07-08-2019 04:00:00 16.63333 C 97.0000 % 16.15 C
30 07-08-2019 05:00:00 16.66667 C 97.0000 % 16.19 C
31 07-08-2019 06:00:00 16.875 C 97.0000 % 16.4 C
32 07-08-2019 07:00:00 17.25 C 97.0000 % 16.77 C
33 07-08-2019 08:00:00 17.75833 C 97.0000 % 17.28 C
34 07-08-2019 09:00:00 18.25 C 97.0000 % 17.77 C
35 07-08-2019 10:00:00 18.96667 C 96.4167 % 18.38 C
36 07-08-2019 11:00:00 19.725 C 93.0833 % 18.57 C
37 07-08-2019 12:00:00 20.83333 C 84.5000 % 18.12 C
38 07-08-2019 13:00:00 21.85833 C 76.3333 % 17.51 C
39 07-08-2019 14:00:00 22.525 C 75.3333 % 17.94 C
40 07-08-2019 15:00:00 22.59167 C 72.9167 % 17.49 C
41 07-08-2019 16:00:00 22.08333 C 72.8333 % 16.98 C
42 07-08-2019 17:00:00 22.53333 C 71.2500 % 17.07 C
43 07-08-2019 18:00:00 23.35833 C 68.4167 % 17.21 C
44 07-08-2019 19:00:00 22.38333 C 73.7500 % 17.47 C
45 07-08-2019 20:00:00 20.05833 C 83.5000 % 17.18 C
46 07-08-2019 21:00:00 18.05 C 86.7500 % 15.81 C
47 07-08-2019 22:00:00 16.74167 C 89.7500 % 15.05 C
48 07-08-2019 23:00:00 16.64167 C 89.1667 % 14.85 C
49 08-08-2019 00:00:00 15.76667 C 91.4167 % 14.37 C
50 08-08-2019 01:00:00 16.35 C 92.0000 % 15.05 C
Sensor: Nr:Datum:Temp:Feuchte:Taupunkt:
Aussen-T/F 51 08-08-2019 02:00:00 16.45 C 92.0000 % 15.15 C
52 08-08-2019 03:00:00 16.44167 C 91.9167 % 15.12 C
53 08-08-2019 04:00:00 16.06667 C 92.6667 % 14.88 C
54 08-08-2019 05:00:00 15.31667 C 93.2500 % 14.23 C
55 08-08-2019 06:00:00 15.7 C 94.0000 % 14.74 C
56 08-08-2019 07:00:00 15.95 C 93.5833 % 14.92 C
57 08-08-2019 08:00:00 17.05833 C 91.1667 % 15.61 C
58 08-08-2019 09:00:00 18.55833 C 84.0833 % 15.82 C
59 08-08-2019 10:00:00 20.05833 C 73.0000 % 15.07 C
60 08-08-2019 11:00:00 21.74167 C 65.7500 % 15.05 C
61 08-08-2019 12:00:00 22.99167 C 61.1667 % 15.11 C
62 08-08-2019 13:00:00 24.025 C 57.4167 % 15.1 C
63 08-08-2019 14:00:00 24.20833 C 57.3333 % 15.24 C
64 08-08-2019 15:00:00 24.51667 C 57.1667 % 15.49 C
65 08-08-2019 16:00:00 26.58333 C 51.4167 % 15.74 C
66 08-08-2019 17:00:00 27.18333 C 48.1667 % 15.28 C
67 08-08-2019 18:00:00 27.46667 C 47.3333 % 15.26 C
68 08-08-2019 19:00:00 25.43333 C 62.0833 % 17.64 C
69 08-08-2019 20:00:00 23.575 C 67.5833 % 17.23 C
70 08-08-2019 21:00:00 20.625 C 76.4167 % 16.33 C
71 08-08-2019 22:00:00 19.15833 C 83.1667 % 16.23 C
72 08-08-2019 23:00:00 18.16667 C 87.5000 % 16.06 C
73 09-08-2019 00:00:00 17.15833 C 89.4167 % 15.4 C
74 09-08-2019 01:00:00 16.25833 C 91.2500 % 14.83 C
75 09-08-2019 02:00:00 15.875 C 92.0000 % 14.58 C
Sensor: Nr:Datum:Temp:Feuchte:Taupunkt:
Aussen-T/F 76 09-08-2019 03:00:00 15.21667 C 92.7500 % 14.05 C
77 09-08-2019 04:00:00 14.725 C 93.6667 % 13.71 C
78 09-08-2019 05:00:00 14.44167 C 94.0833 % 13.5 C
79 09-08-2019 06:00:00 14.56667 C 95.0000 % 13.78 C
80 09-08-2019 07:00:00 15.40833 C 95.3333 % 14.67 C
81 09-08-2019 08:00:00 16.44167 C 93.1667 % 15.33 C
82 09-08-2019 09:00:00 18.26667 C 87.8333 % 16.22 C
83 09-08-2019 10:00:00 20.60833 C 80.7500 % 17.18 C
84 09-08-2019 11:00:00 23.8 C 71.5833 % 18.35 C
85 09-08-2019 12:00:00 25.26667 C 65.8333 % 18.42 C
86 09-08-2019 13:00:00 25.275 C 66.4167 % 18.57 C
87 09-08-2019 14:00:00 24.75 C 77.3333 % 20.51 C
88 09-08-2019 15:00:00 24.43333 C 82.0833 % 21.17 C
89 09-08-2019 16:00:00 27.25 C 69.9167 % 21.28 C
90 09-08-2019 17:00:00 25.45 C 81.5000 % 22.05 C
91 09-08-2019 18:00:00 22.78333 C 88.9167 % 20.86 C
92 09-08-2019 19:00:00 21.5 C 93.0833 % 20.33 C
93 09-08-2019 20:00:00 19.63333 C 94.0833 % 18.65 C
94 09-08-2019 21:00:00 19.31667 C 95.5000 % 18.58 C
95 09-08-2019 22:00:00 19.30833 C 96.0000 % 18.65 C
96 09-08-2019 23:00:00 18.86667 C 96.0000 % 18.21 C
97 10-08-2019 00:00:00 18.775 C 96.5833 % 18.22 C
98 10-08-2019 01:00:00 18.73333 C 96.9167 % 18.23 C
99 10-08-2019 02:00:00 18.50833 C 97.0000 % 18.02 C
100 10-08-2019 03:00:00 18.29167 C 97.0000 % 17.81 C
Sensor: Nr:Datum:Temp:Feuchte:Taupunkt:
Aussen-T/F 101 10-08-2019 04:00:00 18.11667 C 97.0000 % 17.63 C
102 10-08-2019 05:00:00 17.53333 C 97.0000 % 17.05 C
103 10-08-2019 06:00:00 17.45 C 97.0000 % 16.97 C
104 10-08-2019 07:00:00 17.33333 C 97.0000 % 16.85 C
105 10-08-2019 08:00:00 17.41667 C 95.0833 % 16.62 C
106 10-08-2019 09:00:00 19.125 C 86.0000 % 16.73 C
107 10-08-2019 10:00:00 20.36667 C 79.5000 % 16.7 C
108 10-08-2019 11:00:00 21.43333 C 74.3333 % 16.68 C
109 10-08-2019 12:00:00 22.38333 C 69.0000 % 16.42 C
110 10-08-2019 13:00:00 23.26667 C 63.4167 % 15.93 C
111 10-08-2019 14:00:00 23.83333 C 60.7500 % 15.8 C
112 10-08-2019 15:00:00 24.99167 C 55.4167 % 15.44 C
113 10-08-2019 16:00:00 25.24167 C 53.5000 % 15.13 C
114 10-08-2019 17:00:00 26.29167 C 49.2500 % 14.81 C
115 10-08-2019 18:00:00 25.99167 C 49.0833 % 14.48 C
116 10-08-2019 19:00:00 25.00833 C 49.6667 % 13.76 C
117 10-08-2019 20:00:00 22.63333 C 61.2500 % 14.79 C
118 10-08-2019 21:00:00 19.41667 C 72.6667 % 14.38 C
119 10-08-2019 22:00:00 17.71667 C 78.7500 % 13.98 C
120 10-08-2019 23:00:00 16.45833 C 82.0000 % 13.38 C
121 11-08-2019 00:00:00 15.75833 C 84.8333 % 13.21 C
122 11-08-2019 01:00:00 15.375 C 87.3333 % 13.28 C
123 11-08-2019 02:00:00 15.7 C 86.5000 % 13.45 C
124 11-08-2019 03:00:00 15.20833 C 86.5000 % 12.97 C
125 11-08-2019 04:00:00 14.43333 C 88.3333 % 12.53 C
Sensor: Nr:Datum:Temp:Feuchte:Taupunkt:
Aussen-T/F 126 11-08-2019 05:00:00 13.58333 C 90.1667 % 12 C
127 11-08-2019 06:00:00 13.40833 C 92.6667 % 12.25 C
128 11-08-2019 07:00:00 14.04167 C 92.2500 % 12.8 C
129 11-08-2019 08:00:00 14.9 C 91.3333 % 13.5 C
130 11-08-2019 09:00:00 16.21667 C 87.0833 % 14.07 C
131 11-08-2019 10:00:00 19.375 C 69.7500 % 13.71 C
132 11-08-2019 11:00:00 21.26667 C 59.2500 % 13 C
133 11-08-2019 12:00:00 22.09167 C 55.8333 % 12.86 C
134 11-08-2019 13:00:00 22.775 C 51.0833 % 12.14 C
135 11-08-2019 14:00:00 22.89167 C 52.5833 % 12.69 C
136 11-08-2019 15:00:00 21.50833 C 61.3333 % 13.76 C
137 11-08-2019 16:00:00 20.05 C 70.0000 % 14.41 C
138 11-08-2019 17:00:00 17.18333 C 86.8333 % 14.97 C
139 11-08-2019 18:00:00 16.475 C 90.4167 % 14.9 C
140 11-08-2019 19:00:00 16.075 C 89.6667 % 14.38 C
141 11-08-2019 20:00:00 15.775 C 91.0000 % 14.31 C
142 11-08-2019 21:00:00 15.23333 C 91.7500 % 13.9 C
143 11-08-2019 22:00:00 14.3 C 91.8333 % 12.99 C
144 11-08-2019 23:00:00 14.24167 C 93.3333 % 13.18 C
145 12-08-2019 00:00:00 14.85833 C 92.5833 % 13.67 C
146 12-08-2019 01:00:00 14.325 C 92.0833 % 13.06 C
147 12-08-2019 02:00:00 13.66667 C 93.4167 % 12.62 C
148 12-08-2019 03:00:00 13.125 C 94.0000 % 12.18 C
149 12-08-2019 04:00:00 12.89167 C 95.0000 % 12.11 C
150 12-08-2019 05:00:00 12.675 C 95.0000 % 11.9 C
Sensor: Nr:Datum:Temp:Feuchte:Taupunkt:
Aussen-T/F 151 12-08-2019 06:00:00 12.69167 C 95.5833 % 12 C
152 12-08-2019 07:00:00 13.05833 C 96.0000 % 12.44 C
153 12-08-2019 08:00:00 13.5 C 96.0000 % 12.87 C
154 12-08-2019 09:00:00 15.05 C 92.5833 % 13.86 C
155 12-08-2019 10:00:00 17.65 C 82.5000 % 14.63 C
156 12-08-2019 11:00:00 20.08333 C 72.5833 % 15.01 C
157 12-08-2019 12:00:00 21.275 C 65.6667 % 14.59 C
158 12-08-2019 13:00:00 21.775 C 60.7500 % 13.86 C
159 12-08-2019 14:00:00 22.55 C 60.2500 % 14.46 C
160 12-08-2019 15:00:00 23.475 C 55.5833 % 14.08 C
161 12-08-2019 16:00:00 22.54167 C 58.5000 % 14 C
162 12-08-2019 17:00:00 17.89167 C 77.2500 % 13.85 C
163 12-08-2019 18:00:00 15.925 C 90.0000 % 14.29 C
164 12-08-2019 19:00:00 15.925 C 92.0000 % 14.63 C
165 12-08-2019 20:00:00 15.54167 C 92.1667 % 14.28 C
166 12-08-2019 21:00:00 15.19167 C 93.5833 % 14.16 C
167 12-08-2019 22:00:00 14.975 C 94.0000 % 14.02 C
168 12-08-2019 23:00:00 14.01667 C 92.6667 % 12.85 C
169 13-08-2019 00:00:00 13.55833 C 94.2500 % 12.65 C
170 13-08-2019 01:00:00 13.025 C 94.2500 % 12.12 C
171 13-08-2019 02:00:00 12.83333 C 95.2500 % 12.09 C
172 13-08-2019 03:00:00 12.9 C 95.5833 % 12.21 C
173 13-08-2019 04:00:00 13.275 C 95.8333 % 12.62 C
174 13-08-2019 05:00:00 13.18333 C 95.0000 % 12.4 C
175 13-08-2019 06:00:00 12.75 C 95.1667 % 12 C
Sensor: Nr:Datum:Temp:Feuchte:Taupunkt:
Aussen-T/F 176 13-08-2019 07:00:00 12.9 C 95.2500 % 12.16 C
177 13-08-2019 08:00:00 13.39167 C 92.7500 % 12.24 C
178 13-08-2019 09:00:00 14.85 C 86.8333 % 12.68 C
179 13-08-2019 10:00:00 16.225 C 74.6667 % 11.72 C
180 13-08-2019 11:00:00 17.175 C 67.2500 % 11.06 C
181 13-08-2019 12:00:00 18.13333 C 63.4167 % 11.08 C
182 13-08-2019 13:00:00 19.025 C 55.6667 % 9.97 C
183 13-08-2019 14:00:00 19.875 C 52.8333 % 9.97 C
184 13-08-2019 15:00:00 21.275 C 50.3333 % 10.54 C
185 13-08-2019 16:00:00 21.38333 C 50.9167 % 10.81 C
186 13-08-2019 17:00:00 21.25833 C 50.5000 % 10.57 C
187 13-08-2019 18:00:00 21.175 C 51.8333 % 10.89 C
188 13-08-2019 19:00:00 18.53333 C 64.7500 % 11.78 C
189 13-08-2019 20:00:00 14.91667 C 86.6667 % 12.71 C
190 13-08-2019 21:00:00 13.99167 C 91.3333 % 12.6 C
191 13-08-2019 22:00:00 13.63333 C 92.5833 % 12.45 C
192 13-08-2019 23:00:00 13.36667 C 93.0000 % 12.26 C
193 14-08-2019 00:00:00 13.05 C 93.0833 % 11.96 C
194 14-08-2019 01:00:00 12.61667 C 93.1667 % 11.54 C
195 14-08-2019 02:00:00 12.10833 C 93.1667 % 11.04 C
196 14-08-2019 03:00:00 11.93333 C 94.0000 % 11 C
197 14-08-2019 04:00:00 11.43333 C 94.0833 % 10.52 C
198 14-08-2019 05:00:00 11.00833 C 95.0000 % 10.24 C
199 14-08-2019 06:00:00 10.61667 C 95.1667 % 9.88 C
200 14-08-2019 07:00:00 10.61667 C 96.0000 % 10.01 C
Sensor: Nr:Datum:Temp:Feuchte:Taupunkt:
Aussen-T/F 201 14-08-2019 08:00:00 11.4 C 96.3333 % 10.84 C
202 14-08-2019 09:00:00 13.28333 C 93.5000 % 12.26 C
203 14-08-2019 10:00:00 14.26667 C 91.8333 % 12.96 C
204 14-08-2019 11:00:00 15.66667 C 83.2500 % 12.84 C
205 14-08-2019 12:00:00 18.1 C 62.7500 % 10.89 C
206 14-08-2019 13:00:00 19.59167 C 55.0000 % 10.31 C
207 14-08-2019 14:00:00 21.08333 C 50.1667 % 10.31 C
208 14-08-2019 15:00:00 22.60833 C 49.2500 % 11.44 C
209 14-08-2019 16:00:00 23.74167 C 46.2500 % 11.52 C
210 14-08-2019 17:00:00 24.44167 C 44.7500 % 11.66 C
211 14-08-2019 18:00:00 24 C 46.7500 % 11.92 C
212 14-08-2019 19:00:00 22.31667 C 56.5000 % 13.25 C
213 14-08-2019 20:00:00 19.675 C 67.5833 % 13.51 C
214 14-08-2019 21:00:00 18.1 C 74.0833 % 13.41 C
215 14-08-2019 22:00:00 17.63333 C 76.1667 % 13.39 C
216 14-08-2019 23:00:00 17.4 C 76.5000 % 13.23 C
217 15-08-2019 00:00:00 17.35833 C 76.5833 % 13.21 C
218 15-08-2019 01:00:00 17.38333 C 77.5000 % 13.41 C
219 15-08-2019 02:00:00 16.2 C 88.4167 % 14.28 C
220 15-08-2019 03:00:00 15.275 C 92.4167 % 14.05 C
221 15-08-2019 04:00:00 14.90833 C 93.6667 % 13.9 C
222 15-08-2019 05:00:00 14.84167 C 94.1667 % 13.91 C
223 15-08-2019 06:00:00 14.96667 C 94.8333 % 14.15 C
224 15-08-2019 07:00:00 15.6 C 92.3333 % 14.36 C
225 15-08-2019 08:00:00 17.59167 C 83.9167 % 14.84 C
Sensor: Nr:Datum:Temp:Feuchte:Taupunkt:
Aussen-T/F 226 15-08-2019 09:00:00 18.48333 C 81.5000 % 15.26 C
227 15-08-2019 10:00:00 19.14167 C 81.0000 % 15.8 C
228 15-08-2019 11:00:00 19.28333 C 81.5833 % 16.05 C
229 15-08-2019 12:00:00 19.90833 C 79.6667 % 16.29 C
230 15-08-2019 13:00:00 18.94167 C 88.6667 % 17.03 C
231 15-08-2019 14:00:00 19.73333 C 86.0000 % 17.32 C
232 15-08-2019 15:00:00 20.79167 C 81.3333 % 17.48 C
233 15-08-2019 16:00:00 19.325 C 89.5833 % 17.57 C
234 15-08-2019 17:00:00 17.3 C 92.9167 % 16.14 C
235 15-08-2019 18:00:00 16.975 C 94.1667 % 16.03 C
236 15-08-2019 19:00:00 17.25 C 94.5833 % 16.37 C
237 15-08-2019 20:00:00 17.09167 C 94.5833 % 16.22 C
238 15-08-2019 21:00:00 16.40833 C 94.7500 % 15.56 C
239 15-08-2019 22:00:00 15.93333 C 94.5833 % 15.06 C
240 15-08-2019 23:00:00 15.54167 C 95.0000 % 14.74 C
241 16-08-2019 00:00:00 15.29167 C 95.0833 % 14.51 C
242 16-08-2019 01:00:00 14.63333 C 95.2500 % 13.88 C
243 16-08-2019 02:00:00 14.575 C 96.0000 % 13.94 C
244 16-08-2019 03:00:00 14.64167 C 96.0000 % 14.01 C
245 16-08-2019 04:00:00 14.08333 C 96.0000 % 13.46 C
246 16-08-2019 05:00:00 13.575 C 96.2500 % 12.99 C
247 16-08-2019 06:00:00 13.69167 C 97.0000 % 13.22 C
248 16-08-2019 07:00:00 14.18333 C 96.5833 % 13.65 C
249 16-08-2019 08:00:00 14.45833 C 95.0833 % 13.68 C
250 16-08-2019 09:00:00 15.54167 C 89.7500 % 13.87 C
Sensor: Nr:Datum:Temp:Feuchte:Taupunkt:
Aussen-T/F 251 16-08-2019 10:00:00 16.26667 C 85.7500 % 13.88 C
252 16-08-2019 11:00:00 17.1 C 82.4167 % 14.08 C
253 16-08-2019 12:00:00 18.43333 C 76.4167 % 14.21 C
254 16-08-2019 13:00:00 19.65 C 70.7500 % 14.19 C
255 16-08-2019 14:00:00 20.4 C 67.6667 % 14.22 C
256 16-08-2019 15:00:00 21.90833 C 61.0000 % 14.05 C
257 16-08-2019 16:00:00 23.63333 C 54.5000 % 13.92 C
258 16-08-2019 17:00:00 24.475 C 51.8333 % 13.93 C
259 16-08-2019 18:00:00 24.43333 C 52.0833 % 13.96 C
260 16-08-2019 19:00:00 23.41667 C 58.1667 % 14.73 C
261 16-08-2019 20:00:00 20.075 C 71.5833 % 14.78 C
262 16-08-2019 21:00:00 17.75833 C 80.3333 % 14.33 C
263 16-08-2019 22:00:00 16.88333 C 84.8333 % 14.32 C
264 16-08-2019 23:00:00 16.23333 C 86.5833 % 13.99 C
265 17-08-2019 00:00:00 15.69167 C 87.8333 % 13.68 C
266 17-08-2019 01:00:00 15.86667 C 88.2500 % 13.93 C
267 17-08-2019 02:00:00 15.76667 C 88.6667 % 13.9 C
268 17-08-2019 03:00:00 15.76667 C 91.0833 % 14.32 C
269 17-08-2019 04:00:00 15.69167 C 93.2500 % 14.6 C
270 17-08-2019 05:00:00 15.63333 C 94.0000 % 14.67 C
271 17-08-2019 06:00:00 15.65833 C 94.0000 % 14.7 C
272 17-08-2019 07:00:00 16.13333 C 94.0000 % 15.17 C
273 17-08-2019 08:00:00 16.95833 C 90.7500 % 15.44 C
274 17-08-2019 09:00:00 18.66667 C 80.1667 % 15.18 C
275 17-08-2019 10:00:00 19.01667 C 81.0833 % 15.7 C
Sensor: Nr:Datum:Temp:Feuchte:Taupunkt:
Aussen-T/F 276 17-08-2019 11:00:00 18.59167 C 86.8333 % 16.36 C
277 17-08-2019 12:00:00 19.275 C 85.1667 % 16.72 C
278 17-08-2019 13:00:00 20.68333 C 76.3333 % 16.37 C
279 17-08-2019 14:00:00 21 C 74.9167 % 16.38 C
280 17-08-2019 15:00:00 21.31667 C 74.8333 % 16.67 C
281 17-08-2019 16:00:00 21 C 75.9167 % 16.59 C
282 17-08-2019 17:00:00 20.44167 C 77.9167 % 16.46 C
283 17-08-2019 18:00:00 19.975 C 83.0833 % 17.02 C
284 17-08-2019 19:00:00 19.125 C 88.2500 % 17.13 C
285 17-08-2019 20:00:00 18.325 C 91.0833 % 16.84 C
286 17-08-2019 21:00:00 17.84167 C 92.6667 % 16.64 C
287 17-08-2019 22:00:00 17.74167 C 94.0000 % 16.76 C
288 17-08-2019 23:00:00 17.525 C 94.6667 % 16.66 C
289 18-08-2019 00:00:00 17.4 C 95.0000 % 16.59 C
290 18-08-2019 01:00:00 17.38333 C 95.5833 % 16.67 C
291 18-08-2019 02:00:00 17.225 C 96.0000 % 16.58 C
292 18-08-2019 03:00:00 17.2 C 96.0000 % 16.56 C
293 18-08-2019 04:00:00 17.18333 C 96.0000 % 16.54 C
294 18-08-2019 05:00:00 17.3 C 96.7500 % 16.78 C
295 18-08-2019 06:00:00 17.26667 C 97.0000 % 16.79 C
296 18-08-2019 07:00:00 17.34167 C 97.0000 % 16.86 C
297 18-08-2019 08:00:00 17.93333 C 97.0000 % 17.45 C
298 18-08-2019 09:00:00 18.85833 C 97.2500 % 18.41 C
299 18-08-2019 10:00:00 19.93333 C 97.4167 % 19.51 C
300 18-08-2019 11:00:00 22.19167 C 92.0833 % 20.84 C
Sensor: Nr:Datum:Temp:Feuchte:Taupunkt:
Aussen-T/F 301 18-08-2019 12:00:00 24.075 C 77.7500 % 19.95 C
302 18-08-2019 13:00:00 24.4 C 75.8333 % 19.86 C
303 18-08-2019 14:00:00 24.725 C 74.8333 % 19.96 C
304 18-08-2019 15:00:00 24.7 C 75.8333 % 20.15 C
305 18-08-2019 16:00:00 24.99167 C 72.7500 % 19.76 C
306 18-08-2019 17:00:00 24.35 C 72.7500 % 19.14 C
307 18-08-2019 18:00:00 20.49167 C 91.6667 % 19.09 C
308 18-08-2019 19:00:00 20.00833 C 93.8333 % 18.98 C
309 18-08-2019 20:00:00 19.45833 C 94.6667 % 18.58 C
310 18-08-2019 21:00:00 18.8 C 94.3333 % 17.87 C
311 18-08-2019 22:00:00 17.65 C 94.5000 % 16.76 C
312 18-08-2019 23:00:00 16.59167 C 95.0000 % 15.79 C
313 19-08-2019 00:00:00 16.14167 C 96.0000 % 15.5 C
314 19-08-2019 01:00:00 16.10833 C 96.0000 % 15.47 C
315 19-08-2019 02:00:00 15.81667 C 96.0000 % 15.18 C
316 19-08-2019 03:00:00 15.38333 C 96.0833 % 14.76 C
317 19-08-2019 04:00:00 14.78333 C 96.1667 % 14.18 C
318 19-08-2019 05:00:00 15.125 C 97.0000 % 14.65 C
319 19-08-2019 06:00:00 14.61667 C 96.8333 % 14.12 C
320 19-08-2019 07:00:00 15.025 C 97.1667 % 14.58 C
321 19-08-2019 08:00:00 15.65833 C 97.0000 % 15.18 C
322 19-08-2019 09:00:00 15.89167 C 96.5833 % 15.35 C
323 19-08-2019 10:00:00 16.63333 C 87.6667 % 14.58 C
324 19-08-2019 11:00:00 18.55833 C 74.7500 % 13.99 C
325 19-08-2019 12:00:00 20.275 C 64.5000 % 13.37 C
Sensor: Nr:Datum:Temp:Feuchte:Taupunkt:
Aussen-T/F 326 19-08-2019 13:00:00 21.525 C 58.3333 % 13 C
327 19-08-2019 14:00:00 22.79167 C 53.8333 % 12.96 C
328 19-08-2019 15:00:00 23.46667 C 50.6667 % 12.65 C
329 19-08-2019 16:00:00 23.78333 C 50.6667 % 12.94 C
330 19-08-2019 17:00:00 24.025 C 48.4167 % 12.47 C
331 19-08-2019 18:00:00 23.51667 C 50.5000 % 12.65 C
332 19-08-2019 19:00:00 22.95833 C 56.3333 % 13.81 C
333 19-08-2019 20:00:00 19.71667 C 69.6667 % 14.02 C
334 19-08-2019 21:00:00 17.30833 C 74.8333 % 12.8 C
335 19-08-2019 22:00:00 16.51667 C 80.3333 % 13.12 C
336 19-08-2019 23:00:00 15.21667 C 83.5833 % 12.46 C
337 20-08-2019 00:00:00 13.975 C 86.5833 % 11.77 C
338 20-08-2019 01:00:00 13.21667 C 88.4167 % 11.35 C
339 20-08-2019 02:00:00 12.825 C 89.9167 % 11.21 C
340 20-08-2019 03:00:00 12.21667 C 90.6667 % 10.74 C
341 20-08-2019 04:00:00 11.34167 C 92.5000 % 10.17 C
342 20-08-2019 05:00:00 10.9 C 93.6667 % 9.92 C
343 20-08-2019 06:00:00 10.425 C 94.5000 % 9.58 C
344 20-08-2019 07:00:00 10.78333 C 95.3333 % 10.07 C
345 20-08-2019 08:00:00 11.425 C 95.5833 % 10.74 C
346 20-08-2019 09:00:00 12.61667 C 95.0833 % 11.85 C
347 20-08-2019 10:00:00 15.26667 C 86.0000 % 12.94 C
348 20-08-2019 11:00:00 17.375 C 73.5833 % 12.61 C
349 20-08-2019 12:00:00 18.625 C 66.8333 % 12.34 C
350 20-08-2019 13:00:00 19.525 C 62.1667 % 12.1 C
Sensor: Nr:Datum:Temp:Feuchte:Taupunkt:
Aussen-T/F 351 20-08-2019 14:00:00 20.43333 C 57.3333 % 11.72 C
352 20-08-2019 15:00:00 21.10833 C 56.2500 % 12.06 C
353 20-08-2019 16:00:00 21.41667 C 58.8333 % 13.03 C
354 20-08-2019 17:00:00 20.68333 C 64.4167 % 13.73 C
355 20-08-2019 18:00:00 20.375 C 73.9167 % 15.57 C
356 20-08-2019 19:00:00 18.88333 C 74.8333 % 14.32 C
357 20-08-2019 20:00:00 17.58333 C 75.7500 % 13.26 C
358 20-08-2019 21:00:00 16.76667 C 79.9167 % 13.28 C
359 20-08-2019 22:00:00 15.925 C 83.7500 % 13.18 C
360 20-08-2019 23:00:00 15.175 C 85.0000 % 12.67 C
361 21-08-2019 00:00:00 14.11667 C 87.1667 % 12.02 C
362 21-08-2019 01:00:00 13.55833 C 88.7500 % 11.74 C
363 21-08-2019 02:00:00 12.65833 C 90.7500 % 11.19 C
364 21-08-2019 03:00:00 11.99167 C 92.5000 % 10.81 C
365 21-08-2019 04:00:00 11.30833 C 93.5000 % 10.3 C
366 21-08-2019 05:00:00 10.73333 C 94.0000 % 9.81 C
367 21-08-2019 06:00:00 10.325 C 94.9167 % 9.55 C
368 21-08-2019 07:00:00 10.35833 C 95.3333 % 9.65 C
369 21-08-2019 08:00:00 10.85833 C 96.0000 % 10.25 C
370 21-08-2019 09:00:00 11.86667 C 96.0833 % 11.26 C
371 21-08-2019 10:00:00 13.33333 C 96.2500 % 12.75 C
372 21-08-2019 11:00:00 15.80833 C 90.0833 % 14.19 C
373 21-08-2019 12:00:00 18.54167 C 73.0000 % 13.61 C
374 21-08-2019 13:00:00 20.375 C 58.0000 % 11.84 C
375 21-08-2019 14:00:00 21.79167 C 52.3333 % 11.6 C
Sensor: Nr:Datum:Temp:Feuchte:Taupunkt:
Aussen-T/F 376 21-08-2019 15:00:00 22.95833 C 50.2500 % 12.06 C
377 21-08-2019 16:00:00 24.475 C 42.0000 % 10.73 C
378 21-08-2019 17:00:00 24.65 C 41.6667 % 10.77 C
379 21-08-2019 18:00:00 24.64167 C 44.3333 % 11.7 C
380 21-08-2019 19:00:00 23.46667 C 55.0000 % 13.91 C
381 21-08-2019 20:00:00 19.875 C 64.6667 % 13.03 C
382 21-08-2019 21:00:00 17.49167 C 66.9167 % 11.28 C
383 21-08-2019 22:00:00 16.29167 C 69.1667 % 10.64 C
384 21-08-2019 23:00:00 15.05833 C 77.6667 % 11.19 C
385 22-08-2019 00:00:00 13.475 C 83.5000 % 10.74 C
386 22-08-2019 01:00:00 12.41667 C 86.0000 % 10.14 C
387 22-08-2019 02:00:00 11.66667 C 88.5833 % 9.85 C
388 22-08-2019 03:00:00 11.125 C 90.4167 % 9.62 C
389 22-08-2019 04:00:00 10.55833 C 91.6667 % 9.26 C
390 22-08-2019 05:00:00 9.99167 C 92.6667 % 8.86 C
391 22-08-2019 06:00:00 9.71667 C 93.7500 % 8.76 C
392 22-08-2019 07:00:00 9.7 C 94.6667 % 8.89 C
393 22-08-2019 08:00:00 10.30833 C 95.3333 % 9.6 C
394 22-08-2019 09:00:00 11.525 C 96.0000 % 10.91 C
395 22-08-2019 10:00:00 13.51667 C 94.5833 % 12.66 C
396 22-08-2019 11:00:00 16.925 C 82.4167 % 13.91 C
397 22-08-2019 12:00:00 20.11667 C 65.8333 % 13.53 C
398 22-08-2019 13:00:00 22.71667 C 53.8333 % 12.89 C
399 22-08-2019 14:00:00 24.08333 C 48.0000 % 12.39 C
400 22-08-2019 15:00:00 25.89167 C 40.9167 % 11.61 C
Sensor: Nr:Datum:Temp:Feuchte:Taupunkt:
Aussen-T/F 401 22-08-2019 16:00:00 27.33333 C 37.2500 % 11.47 C
402 22-08-2019 17:00:00 28.01667 C 34.5833 % 10.95 C
403 22-08-2019 18:00:00 28.38333 C 34.8333 % 11.38 C
404 22-08-2019 19:00:00 26.06667 C 49.0000 % 14.52 C
405 22-08-2019 20:00:00 21.49167 C 58.5833 % 13.04 C
406 22-08-2019 21:00:00 18.25 C 68.9167 % 12.45 C
407 22-08-2019 22:00:00 16.40833 C 75.9167 % 12.15 C
408 22-08-2019 23:00:00 14.90833 C 79.3333 % 11.37 C
409 23-08-2019 00:00:00 13.94167 C 82.9167 % 11.09 C
410 23-08-2019 01:00:00 13.26667 C 85.0833 % 10.82 C
411 23-08-2019 02:00:00 12.775 C 86.9167 % 10.65 C
412 23-08-2019 03:00:00 11.975 C 89.1667 % 10.25 C
413 23-08-2019 04:00:00 11.56667 C 91.0833 % 10.16 C
414 23-08-2019 05:00:00 11.06667 C 91.9167 % 9.8 C
415 23-08-2019 06:00:00 10.66667 C 93.2500 % 9.62 C
416 23-08-2019 07:00:00 10.7 C 94.1667 % 9.8 C
417 23-08-2019 08:00:00 11.3 C 94.9167 % 10.52 C
418 23-08-2019 09:00:00 12.35 C 95.0000 % 11.57 C
419 23-08-2019 10:00:00 14.34167 C 94.0833 % 13.4 C
420 23-08-2019 11:00:00 17.6 C 85.0000 % 15.05 C
421 23-08-2019 12:00:00 21.16667 C 69.0000 % 15.26 C
422 23-08-2019 13:00:00 24.1 C 50.8333 % 13.28 C
423 23-08-2019 14:00:00 26.13333 C 42.2500 % 12.31 C
424 23-08-2019 15:00:00 27.85833 C 38.2500 % 12.34 C
425 23-08-2019 16:00:00 29.15 C 34.9167 % 12.09 C
Sensor: Nr:Datum:Temp:Feuchte:Taupunkt:
Aussen-T/F 426 23-08-2019 17:00:00 29.375 C 34.0000 % 11.88 C
427 23-08-2019 18:00:00 28.94167 C 33.0833 % 11.09 C
428 23-08-2019 19:00:00 27.20833 C 46.3333 % 14.7 C
429 23-08-2019 20:00:00 23.01667 C 55.5000 % 13.63 C
430 23-08-2019 21:00:00 20.16667 C 65.0000 % 13.38 C
431 23-08-2019 22:00:00 17.85 C 72.8333 % 12.91 C
432 23-08-2019 23:00:00 16.23333 C 76.7500 % 12.15 C
433 24-08-2019 00:00:00 14.96667 C 80.7500 % 11.69 C
434 24-08-2019 01:00:00 14.05833 C 84.5000 % 11.49 C
435 24-08-2019 02:00:00 13.425 C 86.5000 % 11.22 C
436 24-08-2019 03:00:00 12.7 C 88.7500 % 10.89 C
437 24-08-2019 04:00:00 12.06667 C 90.3333 % 10.53 C
438 24-08-2019 05:00:00 11.66667 C 91.7500 % 10.37 C
439 24-08-2019 06:00:00 11.425 C 92.8333 % 10.31 C
440 24-08-2019 07:00:00 11.575 C 94.0000 % 10.64 C
441 24-08-2019 08:00:00 12.06667 C 94.1667 % 11.16 C
442 24-08-2019 09:00:00 13.23333 C 94.0000 % 12.29 C
443 24-08-2019 10:00:00 15.5 C 91.5000 % 14.12 C
444 24-08-2019 11:00:00 18.88333 C 79.6667 % 15.29 C
445 24-08-2019 12:00:00 22.24167 C 66.0833 % 15.61 C
446 24-08-2019 13:00:00 25.4 C 52.1667 % 14.88 C
447 24-08-2019 14:00:00 27.05 C 43.6667 % 13.64 C
448 24-08-2019 15:00:00 28.69167 C 37.6667 % 12.84 C
449 24-08-2019 16:00:00 29.81667 C 34.4167 % 12.45 C
450 24-08-2019 17:00:00 30.29167 C 32.7500 % 12.11 C
Sensor: Nr:Datum:Temp:Feuchte:Taupunkt:
Aussen-T/F 451 24-08-2019 18:00:00 30.66667 C 34.8333 % 13.38 C
452 24-08-2019 19:00:00 28.56667 C 48.9167 % 16.78 C
453 24-08-2019 20:00:00 24.29167 C 59.2500 % 15.83 C
454 24-08-2019 21:00:00 22.01667 C 66.2500 % 15.43 C
455 24-08-2019 22:00:00 19.78333 C 74.0833 % 15.03 C
456 24-08-2019 23:00:00 18.175 C 78.3333 % 14.34 C
457 25-08-2019 00:00:00 17.35833 C 81.7500 % 14.21 C
458 25-08-2019 01:00:00 16.96667 C 82.7500 % 14.01 C
459 25-08-2019 02:00:00 16.15833 C 85.2500 % 13.68 C
460 25-08-2019 03:00:00 15.53333 C 88.0000 % 13.55 C
461 25-08-2019 04:00:00 15.19167 C 88.4167 % 13.29 C
462 25-08-2019 05:00:00 14.65833 C 89.8333 % 13.01 C
463 25-08-2019 06:00:00 14.41667 C 90.8333 % 12.94 C
464 25-08-2019 07:00:00 14.80833 C 91.4167 % 13.42 C
465 25-08-2019 08:00:00 15.84167 C 90.5000 % 14.29 C
466 25-08-2019 09:00:00 17.2 C 88.3333 % 15.25 C
467 25-08-2019 10:00:00 18.78333 C 84.6667 % 16.15 C
468 25-08-2019 11:00:00 21.64167 C 77.4167 % 17.52 C
469 25-08-2019 12:00:00 24.54167 C 70.0000 % 18.71 C
470 25-08-2019 13:00:00 26.76667 C 62.9167 % 19.11 C
471 25-08-2019 14:00:00 28.375 C 57.0000 % 19.03 C
472 25-08-2019 15:00:00 30.28333 C 51.4167 % 19.14 C
473 25-08-2019 16:00:00 31.18333 C 49.6667 % 19.41 C
474 25-08-2019 17:00:00 32.3 C 47.0000 % 19.54 C
475 25-08-2019 18:00:00 30.05 C 52.9167 % 19.39 C
Sensor: Nr:Datum:Temp:Feuchte:Taupunkt:
Aussen-T/F 476 25-08-2019 19:00:00 27.125 C 63.3333 % 19.55 C
477 25-08-2019 20:00:00 24.31667 C 71.4167 % 18.81 C
478 25-08-2019 21:00:00 22.98333 C 77.1667 % 18.77 C
479 25-08-2019 22:00:00 21.19167 C 82.4167 % 18.08 C
480 25-08-2019 23:00:00 20.10833 C 85.4167 % 17.58 C
481 26-08-2019 00:00:00 19.475 C 88.0833 % 17.45 C
482 26-08-2019 01:00:00 19.14167 C 89.1667 % 17.31 C
483 26-08-2019 02:00:00 18.53333 C 90.7500 % 16.99 C
484 26-08-2019 03:00:00 18.025 C 91.6667 % 16.65 C
485 26-08-2019 04:00:00 17.41667 C 93.0000 % 16.27 C
486 26-08-2019 05:00:00 17.14167 C 94.1667 % 16.2 C
487 26-08-2019 06:00:00 16.76667 C 94.3333 % 15.85 C
488 26-08-2019 07:00:00 16.71667 C 95.2500 % 15.95 C
489 26-08-2019 08:00:00 17.475 C 96.0000 % 16.83 C
490 26-08-2019 09:00:00 18.55 C 95.8333 % 17.87 C
491 26-08-2019 10:00:00 20.15833 C 92.4167 % 18.89 C
492 26-08-2019 11:00:00 22.95 C 83.6667 % 20.04 C
493 26-08-2019 12:00:00 25.70833 C 72.8333 % 20.46 C
494 26-08-2019 13:00:00 28.3 C 60.3333 % 19.88 C
495 26-08-2019 14:00:00 30.01667 C 52.6667 % 19.29 C
496 26-08-2019 15:00:00 30.85833 C 50.5000 % 19.38 C
497 26-08-2019 16:00:00 28.55 C 59.1667 % 19.8 C
498 26-08-2019 17:00:00 27.475 C 67.2500 % 20.86 C
499 26-08-2019 18:00:00 27.10833 C 70.0833 % 21.18 C
500 26-08-2019 19:00:00 28.06667 C 66.0000 % 21.11 C
Sensor: Nr:Datum:Temp:Feuchte:Taupunkt:
Aussen-T/F 501 26-08-2019 20:00:00 24.69167 C 73.5833 % 19.65 C
502 26-08-2019 21:00:00 22.45 C 80.5000 % 18.93 C
503 26-08-2019 22:00:00 21.09167 C 84.7500 % 18.42 C
504 26-08-2019 23:00:00 20.175 C 87.8333 % 18.09 C
505 27-08-2019 00:00:00 19.40833 C 89.9167 % 17.71 C
506 27-08-2019 01:00:00 19.01667 C 92.0000 % 17.69 C
507 27-08-2019 02:00:00 18.39167 C 92.8333 % 17.21 C
508 27-08-2019 03:00:00 17.91667 C 94.0833 % 16.95 C
509 27-08-2019 04:00:00 17.55833 C 94.2500 % 16.62 C
510 27-08-2019 05:00:00 17.15833 C 95.0000 % 16.35 C
511 27-08-2019 06:00:00 16.79167 C 95.3333 % 16.04 C
512 27-08-2019 07:00:00 16.85 C 96.0000 % 16.21 C
513 27-08-2019 08:00:00 17.325 C 96.5000 % 16.76 C
514 27-08-2019 09:00:00 18.4 C 97.0000 % 17.91 C
515 27-08-2019 10:00:00 19.78333 C 96.0833 % 19.14 C
516 27-08-2019 11:00:00 22.275 C 90.2500 % 20.6 C
517 27-08-2019 12:00:00 25.41667 C 76.2500 % 20.93 C
518 27-08-2019 13:00:00 28.99167 C 57.0000 % 19.61 C
519 27-08-2019 14:00:00 30.54167 C 49.2500 % 18.69 C
520 27-08-2019 15:00:00 31.89167 C 43.0833 % 17.78 C
521 27-08-2019 16:00:00 33.23333 C 41.6667 % 18.45 C
522 27-08-2019 17:00:00 32.29167 C 47.5000 % 19.71 C
523 27-08-2019 18:00:00 29.55833 C 57.0833 % 20.16 C
524 27-08-2019 19:00:00 27.7 C 63.8333 % 20.22 C
525 27-08-2019 20:00:00 23.50833 C 81.8333 % 20.22 C
Sensor: Nr:Datum:Temp:Feuchte:Taupunkt:
Aussen-T/F 526 27-08-2019 21:00:00 22.09167 C 84.5833 % 19.37 C
527 27-08-2019 22:00:00 21.14167 C 86.4167 % 18.78 C
528 27-08-2019 23:00:00 20.43333 C 88.1667 % 18.41 C
529 28-08-2019 00:00:00 19.9 C 90.0833 % 18.23 C
530 28-08-2019 01:00:00 19.61667 C 91.7500 % 18.24 C
531 28-08-2019 02:00:00 19.24167 C 92.6667 % 18.02 C
532 28-08-2019 03:00:00 18.71667 C 93.5000 % 17.65 C
533 28-08-2019 04:00:00 18.33333 C 93.9167 % 17.34 C
534 28-08-2019 05:00:00 17.96667 C 94.4167 % 17.06 C
535 28-08-2019 06:00:00 18.01667 C 95.0833 % 17.22 C
536 28-08-2019 07:00:00 17.85833 C 95.2500 % 17.09 C
537 28-08-2019 08:00:00 18.64167 C 95.7500 % 17.95 C
538 28-08-2019 09:00:00 19.75833 C 93.2500 % 18.64 C
539 28-08-2019 10:00:00 22.45 C 77.7500 % 18.37 C
540 28-08-2019 11:00:00 23.975 C 71.6667 % 18.54 C
541 28-08-2019 12:00:00 24.49167 C 70.8333 % 18.85 C
542 28-08-2019 13:00:00 26.54167 C 58.8333 % 17.83 C
543 28-08-2019 14:00:00 29.44167 C 50.3333 % 18.03 C
544 28-08-2019 15:00:00 30.35833 C 44.2500 % 16.83 C
545 28-08-2019 16:00:00 31.55833 C 41.3333 % 16.83 C
546 28-08-2019 17:00:00 31.80833 C 42.0000 % 17.3 C
547 28-08-2019 18:00:00 31.18333 C 45.7500 % 18.1 C
548 28-08-2019 19:00:00 27.875 C 52.1667 % 17.16 C
549 28-08-2019 20:00:00 25.59167 C 56.5833 % 16.33 C
550 28-08-2019 21:00:00 24.2 C 62.5000 % 16.59 C
Sensor: Nr:Datum:Temp:Feuchte:Taupunkt:
Aussen-T/F 551 28-08-2019 22:00:00 22.43333 C 70.0833 % 16.71 C
552 28-08-2019 23:00:00 21.38333 C 74.3333 % 16.63 C
553 29-08-2019 00:00:00 20.775 C 76.8333 % 16.56 C
554 29-08-2019 01:00:00 20.10833 C 79.0833 % 16.37 C
555 29-08-2019 02:00:00 19.2 C 82.1667 % 16.08 C
556 29-08-2019 03:00:00 18.225 C 84.8333 % 15.63 C
557 29-08-2019 04:00:00 17.53333 C 88.0000 % 15.52 C
558 29-08-2019 05:00:00 17.78333 C 89.9167 % 16.11 C
559 29-08-2019 06:00:00 18.34167 C 89.8333 % 16.64 C
560 29-08-2019 07:00:00 19.04167 C 89.2500 % 17.23 C
561 29-08-2019 08:00:00 19.89167 C 87.0833 % 17.68 C
562 29-08-2019 09:00:00 20.7 C 84.8333 % 18.06 C
563 29-08-2019 10:00:00 21.175 C 86.5000 % 18.83 C
564 29-08-2019 11:00:00 22.13333 C 82.5000 % 19.01 C
565 29-08-2019 12:00:00 23.29167 C 77.6667 % 19.17 C
566 29-08-2019 13:00:00 25.45 C 68.7500 % 19.29 C
567 29-08-2019 14:00:00 26.78333 C 64.8333 % 19.61 C
568 29-08-2019 15:00:00 27.53333 C 62.5833 % 19.75 C
569 29-08-2019 16:00:00 27.875 C 59.9167 % 19.37 C
570 29-08-2019 17:00:00 27.28333 C 60.2500 % 18.9 C
571 29-08-2019 18:00:00 26.44167 C 60.8333 % 18.27 C
572 29-08-2019 19:00:00 24.73333 C 64.6667 % 17.63 C
573 29-08-2019 20:00:00 22.80833 C 70.6667 % 17.2 C
574 29-08-2019 21:00:00 20.89167 C 76.7500 % 16.66 C
575 29-08-2019 22:00:00 20.525 C 78.8333 % 16.72 C
Sensor: Nr:Datum:Temp:Feuchte:Taupunkt:
Aussen-T/F 576 29-08-2019 23:00:00 20.48333 C 79.5833 % 16.83 C
577 30-08-2019 00:00:00 20.30833 C 79.0000 % 16.55 C
578 30-08-2019 01:00:00 19.18333 C 82.9167 % 16.21 C
579 30-08-2019 02:00:00 18.2 C 86.0833 % 15.83 C
580 30-08-2019 03:00:00 17.48333 C 88.4167 % 15.55 C
581 30-08-2019 04:00:00 16.65833 C 90.0833 % 15.03 C
582 30-08-2019 05:00:00 15.975 C 92.7500 % 14.8 C
583 30-08-2019 06:00:00 15.91667 C 93.2500 % 14.83 C
584 30-08-2019 07:00:00 15.41667 C 93.6667 % 14.4 C
585 30-08-2019 08:00:00 16.09167 C 94.4167 % 15.19 C
586 30-08-2019 09:00:00 17.96667 C 88.6667 % 16.07 C
587 30-08-2019 10:00:00 19.41667 C 81.7500 % 16.22 C
588 30-08-2019 11:00:00 20.825 C 76.0000 % 16.44 C
589 30-08-2019 12:00:00 22.16667 C 72.6667 % 17.03 C
590 30-08-2019 13:00:00 23.59167 C 68.2500 % 17.4 C
591 30-08-2019 14:00:00 25 C 60.8333 % 16.91 C
592 30-08-2019 15:00:00 26.16667 C 51.2500 % 15.31 C
593 30-08-2019 16:00:00 27.98333 C 45.6667 % 15.17 C
594 30-08-2019 17:00:00 29.66667 C 37.8333 % 13.77 C
595 30-08-2019 18:00:00 29.54167 C 37.5833 % 13.56 C
596 30-08-2019 19:00:00 27.175 C 47.0833 % 14.91 C
597 30-08-2019 20:00:00 23 C 55.5833 % 13.64 C
598 30-08-2019 21:00:00 20.38333 C 65.0833 % 13.61 C
599 30-08-2019 22:00:00 18.64167 C 72.5833 % 13.62 C
600 30-08-2019 23:00:00 17.38333 C 77.2500 % 13.36 C
Sensor: Nr:Datum:Temp:Feuchte:Taupunkt:
Aussen-T/F 601 31-08-2019 00:00:00 16.65 C 81.0000 % 13.38 C
602 31-08-2019 01:00:00 15.825 C 84.1667 % 13.16 C
603 31-08-2019 02:00:00 15.21667 C 86.2500 % 12.94 C
604 31-08-2019 03:00:00 14.75 C 88.5000 % 12.87 C
605 31-08-2019 04:00:00 14.31667 C 90.1667 % 12.73 C
606 31-08-2019 05:00:00 14.15 C 91.5833 % 12.8 C
607 31-08-2019 06:00:00 14.1 C 92.0000 % 12.82 C
608 31-08-2019 07:00:00 14.10833 C 92.6667 % 12.94 C
609 31-08-2019 08:00:00 14.76667 C 92.6667 % 13.59 C
610 31-08-2019 09:00:00 15.89167 C 92.2500 % 14.64 C
611 31-08-2019 10:00:00 17.8 C 89.0000 % 15.96 C
612 31-08-2019 11:00:00 20.6 C 81.2500 % 17.27 C
613 31-08-2019 12:00:00 23.625 C 73.0833 % 18.52 C
614 31-08-2019 13:00:00 28.49167 C 54.5833 % 18.45 C
615 31-08-2019 14:00:00 30.36667 C 47.3333 % 17.9 C
616 31-08-2019 15:00:00 31.43333 C 43.3333 % 17.46 C
617 31-08-2019 16:00:00 32.48333 C 42.3333 % 18.03 C
618 31-08-2019 17:00:00 33.89167 C 39.8333 % 18.32 C
619 31-08-2019 18:00:00 33.71667 C 40.0000 % 18.23 C
620 31-08-2019 19:00:00 31.13333 C 48.8333 % 19.1 C
621 31-08-2019 20:00:00 25.89167 C 60.0000 % 17.53 C
622 31-08-2019 21:00:00 24.875 C 62.0000 % 17.09 C
623 31-08-2019 22:00:00 24.58333 C 70.5000 % 18.86 C
624 31-08-2019 23:00:00 20.69167 C 87.5833 % 18.56 C
625 01-09-2019 00:00:00 19.66667 C 91.2500 % 18.2 C
Sensor: Nr:Datum:Temp:Feuchte:Taupunkt:
Aussen-T/F 626 01-09-2019 01:00:00 19.34167 C 90.9167 % 17.82 C
627 01-09-2019 02:00:00 19.10833 C 85.9167 % 16.7 C
628 01-09-2019 03:00:00 18.325 C 84.0833 % 15.59 C
629 01-09-2019 04:00:00 17.88333 C 80.1667 % 14.42 C
630 01-09-2019 05:00:00 17.84167 C 79.0833 % 14.17 C
631 01-09-2019 06:00:00 17.30833 C 79.5833 % 13.75 C
632 01-09-2019 07:00:00 16.1 C 85.6667 % 13.7 C
633 01-09-2019 08:00:00 17.48333 C 82.5833 % 14.49 C
634 01-09-2019 09:00:00 18.13333 C 80.5000 % 14.73 C
635 01-09-2019 10:00:00 19.10833 C 76.5000 % 14.88 C
636 01-09-2019 11:00:00 20.025 C 74.2500 % 15.3 C
637 01-09-2019 12:00:00 20.05 C 74.8333 % 15.45 C
638 01-09-2019 13:00:00 19.69167 C 77.9167 % 15.73 C
639 01-09-2019 14:00:00 20.075 C 75.6667 % 15.65 C
640 01-09-2019 15:00:00 20.61667 C 71.6667 % 15.32 C
641 01-09-2019 16:00:00 20.38333 C 68.0000 % 14.28 C
642 01-09-2019 17:00:00 19.975 C 65.4167 % 13.3 C
643 01-09-2019 18:00:00 20.75833 C 60.5833 % 12.86 C
644 01-09-2019 19:00:00 20.60833 C 57.9167 % 12.04 C
645 01-09-2019 20:00:00 18.38333 C 66.5000 % 12.04 C
646 01-09-2019 21:00:00 16.68333 C 72.3333 % 11.69 C
647 01-09-2019 22:00:00 16.39167 C 71.4167 % 11.21 C
648 01-09-2019 23:00:00 15.59167 C 75.0000 % 11.18 C
649 02-09-2019 00:00:00 14.44167 C 75.5000 % 10.17 C
650 02-09-2019 01:00:00 13.29167 C 77.8333 % 9.51 C
Sensor: Nr:Datum:Temp:Feuchte:Taupunkt:
Aussen-T/F 651 02-09-2019 02:00:00 13.3 C 80.2500 % 9.97 C
652 02-09-2019 03:00:00 13.025 C 82.5000 % 10.12 C
653 02-09-2019 04:00:00 12 C 83.9167 % 9.37 C
654 02-09-2019 05:00:00 11.21667 C 85.9167 % 8.95 C
655 02-09-2019 06:00:00 10.15 C 89.0833 % 8.43 C
656 02-09-2019 07:00:00 9.73333 C 91.6667 % 8.44 C
657 02-09-2019 08:00:00 10.03333 C 92.9167 % 8.94 C
658 02-09-2019 09:00:00 10.83333 C 92.5833 % 9.68 C
659 02-09-2019 10:00:00 12.85833 C 88.0833 % 10.94 C
660 02-09-2019 11:00:00 16.2 C 66.4167 % 9.94 C
661 02-09-2019 12:00:00 17.53333 C 56.5000 % 8.8 C
662 02-09-2019 13:00:00 18.70833 C 49.6667 % 7.98 C
663 02-09-2019 14:00:00 19.83333 C 46.2500 % 7.97 C
664 02-09-2019 15:00:00 20.175 C 45.2500 % 7.96 C
665 02-09-2019 16:00:00 21.80833 C 41.5833 % 8.19 C
666 02-09-2019 17:00:00 23.09167 C 37.9167 % 7.98 C
667 02-09-2019 18:00:00 22.99167 C 37.3333 % 7.66 C
668 02-09-2019 19:00:00 20.575 C 46.7500 % 8.8 C
669 02-09-2019 20:00:00 16.9 C 56.3333 % 8.16 C
670 02-09-2019 21:00:00 15.39167 C 60.6667 % 7.84 C
671 02-09-2019 22:00:00 13.475 C 70.1667 % 8.15 C
672 02-09-2019 23:00:00 12.98333 C 72.7500 % 8.21 C
673 03-09-2019 00:00:00 12.39167 C 74.8333 % 8.06 C
674 03-09-2019 01:00:00 12.125 C 76.5000 % 8.12 C
675 03-09-2019 02:00:00 10.89167 C 79.0833 % 7.41 C
Sensor: Nr:Datum:Temp:Feuchte:Taupunkt:
Aussen-T/F 676 03-09-2019 03:00:00 10.175 C 81.5833 % 7.17 C
677 03-09-2019 04:00:00 10.08333 C 83.8333 % 7.48 C
678 03-09-2019 05:00:00 9.45 C 85.0833 % 7.07 C
679 03-09-2019 06:00:00 8.91667 C 87.0833 % 6.89 C
680 03-09-2019 07:00:00 8.65833 C 88.8333 % 6.92 C
681 03-09-2019 08:00:00 9.08333 C 89.7500 % 7.49 C
682 03-09-2019 09:00:00 10.375 C 88.9167 % 8.63 C
683 03-09-2019 10:00:00 13.225 C 81.5833 % 10.15 C
684 03-09-2019 11:00:00 17.34167 C 63.2500 % 10.29 C
685 03-09-2019 12:00:00 19.95833 C 53.5000 % 10.24 C
686 03-09-2019 13:00:00 21.25 C 49.6667 % 10.32 C
687 03-09-2019 14:00:00 22.64167 C 45.5000 % 10.28 C
688 03-09-2019 15:00:00 23.75 C 45.8333 % 11.39 C
689 03-09-2019 16:00:00 23.58333 C 49.8333 % 12.51 C
690 03-09-2019 17:00:00 23.65 C 50.9167 % 12.9 C
691 03-09-2019 18:00:00 23.225 C 52.5833 % 13 C
692 03-09-2019 19:00:00 21.11667 C 58.7500 % 12.73 C
693 03-09-2019 20:00:00 18.86667 C 65.9167 % 12.36 C
694 03-09-2019 21:00:00 16.325 C 75.0000 % 11.89 C
695 03-09-2019 22:00:00 15.33333 C 79.2500 % 11.76 C
696 03-09-2019 23:00:00 14.05 C 83.3333 % 11.27 C
697 04-09-2019 00:00:00 13.05 C 87.0000 % 10.94 C
698 04-09-2019 01:00:00 12.35 C 89.4167 % 10.66 C
699 04-09-2019 02:00:00 11.85833 C 90.6667 % 10.38 C
700 04-09-2019 03:00:00 11.325 C 91.9167 % 10.06 C
Sensor: Nr:Datum:Temp:Feuchte:Taupunkt:
Aussen-T/F 701 04-09-2019 04:00:00 10.74167 C 92.5833 % 9.59 C
702 04-09-2019 05:00:00 10.36667 C 93.5833 % 9.38 C
703 04-09-2019 06:00:00 10.15833 C 94.2500 % 9.28 C
704 04-09-2019 07:00:00 10.09167 C 94.7500 % 9.29 C
705 04-09-2019 08:00:00 10.675 C 95.3333 % 9.96 C
706 04-09-2019 09:00:00 13.11667 C 92.2500 % 11.89 C
707 04-09-2019 10:00:00 14.875 C 85.4167 % 12.45 C
708 04-09-2019 11:00:00 18.09167 C 72.6667 % 13.11 C
709 04-09-2019 12:00:00 19.78333 C 65.9167 % 13.23 C
710 04-09-2019 13:00:00 21.16667 C 62.0000 % 13.6 C
711 04-09-2019 14:00:00 22.59167 C 57.5833 % 13.8 C
712 04-09-2019 15:00:00 23.85 C 53.5000 % 13.84 C
713 04-09-2019 16:00:00 25.11667 C 50.6667 % 14.17 C
714 04-09-2019 17:00:00 26.875 C 44.8333 % 13.89 C
715 04-09-2019 18:00:00 25.04167 C 47.0000 % 12.95 C
716 04-09-2019 19:00:00 23.58333 C 52.2500 % 13.23 C
717 04-09-2019 20:00:00 19.81667 C 69.4167 % 14.06 C
718 04-09-2019 21:00:00 17.625 C 85.0000 % 15.07 C
719 04-09-2019 22:00:00 16.28333 C 90.3333 % 14.7 C
720 04-09-2019 23:00:00 15.64167 C 90.9167 % 14.16 C
721 05-09-2019 00:00:00 15.6 C 91.0000 % 14.14 C
722 05-09-2019 01:00:00 15.41667 C 89.1667 % 13.64 C
723 05-09-2019 02:00:00 14.29167 C 86.8333 % 12.13 C
724 05-09-2019 03:00:00 13.975 C 86.6667 % 11.79 C
725 05-09-2019 04:00:00 14.075 C 85.0000 % 11.59 C
Sensor: Nr:Datum:Temp:Feuchte:Taupunkt:
Aussen-T/F 726 05-09-2019 05:00:00 13.48333 C 84.1667 % 10.87 C
727 05-09-2019 06:00:00 12.56667 C 86.0000 % 10.29 C
728 05-09-2019 07:00:00 12.20833 C 86.9167 % 10.1 C
729 05-09-2019 08:00:00 12.58333 C 85.4167 % 10.2 C
730 05-09-2019 09:00:00 13.59167 C 82.2500 % 10.63 C
731 05-09-2019 10:00:00 15.475 C 77.3333 % 11.53 C
732 05-09-2019 11:00:00 16.775 C 70.4167 % 11.37 C
733 05-09-2019 12:00:00 17.09167 C 67.3333 % 11 C
734 05-09-2019 13:00:00 18.1 C 60.9167 % 10.45 C
735 05-09-2019 14:00:00 18.09167 C 62.9167 % 10.92 C
736 05-09-2019 15:00:00 18.5 C 57.5833 % 9.98 C
737 05-09-2019 16:00:00 18.91667 C 55.9167 % 9.93 C
738 05-09-2019 17:00:00 17.225 C 63.8333 % 10.32 C
739 05-09-2019 18:00:00 16.4 C 67.6667 % 10.41 C
740 05-09-2019 19:00:00 16.46667 C 64.3333 % 9.72 C
741 05-09-2019 20:00:00 15.70833 C 69.0833 % 10.06 C
742 05-09-2019 21:00:00 14.93333 C 70.2500 % 9.57 C
743 05-09-2019 22:00:00 14.49167 C 72.5000 % 9.61 C
744 05-09-2019 23:00:00 13.94167 C 74.0000 % 9.39 C

Maximal/Minimal-Werte vom 06.08.2019 - 05.09.2019

Sensor Min Max Avg
Temp
(Aussen-T/F)
8.5 °C
03-09-2019  07:00:00
34.3 °C
27-08-2019  17:00:00
18.78 °C
Feuchte
(Aussen-T/F)
30 %
24-08-2019  18:00:00
98 %
18-08-2019  09:25:00
77.96 %
Taupunkt
(Aussen-T/F)
6.89 C
03-09-2019  06:00:00
22.05 C
09-08-2019  17:00:00
14.35 C

Die Daten stammen von einer Davis Vantage Pro 2 Wetter-Station und werden unter Linux mit der Software wview2wettercgi und aufbereitet. Alle Angaben erfolgen ohne Gewähr für ihre Vollständigkeit oder Richtigkeit.
Kontakt: Rainer Krienke krienke@uni-koblenz.de . Meine Webseiten an der Uni Koblenz oder privat.
Version: $Revision: 0.78 $